Time;durP1;ratioP1;P1;durP2;ratioP2;P2;SDS_P1;SDS_P2;PMS_P1;PMS_P2;Temp;Humidity;BMP_temperature;BMP_pressure;BME280_temperature;BME280_humidity;BME280_pressure;Samples;Min_cycle;Max_cycle;Signal;HPM_P1;HPM_P2
2022/08/26 00:02:18;;;;;;;;;;;16.00;99.90;;;;;;5119661;27;20493;-56
2022/08/26 00:04:57;;;;;;;;;;;16.00;99.90;;;;;;5124868;27;20210;-56
2022/08/26 00:07:37;;;;;;;;;;;15.90;99.90;;;;;;5104059;27;19961;-56
2022/08/26 00:10:17;;;;;;;;;;;15.80;99.90;;;;;;5124556;27;19912;-56
2022/08/26 00:12:58;;;;;;;;;;;15.80;99.90;;;;;;5114571;27;19912;-56
2022/08/26 00:15:39;;;;;;;;;;;15.80;99.90;;;;;;5124816;27;19920;-56
2022/08/26 00:18:19;;;;;;;;;;;15.80;99.90;;;;;;5124784;27;19918;-55
2022/08/26 00:21:00;;;;;;;;;;;15.80;99.90;;;;;;5124571;27;19912;-56
2022/08/26 00:23:39;;;;;;;;;;;15.80;99.90;;;;;;5088484;27;19913;-56
2022/08/26 00:26:19;;;;;;;;;;;15.70;99.90;;;;;;5104763;27;19912;-56
2022/08/26 00:28:59;;;;;;;;;;;15.70;99.90;;;;;;5124290;27;19919;-56
2022/08/26 00:31:39;;;;;;;;;;;15.70;99.90;;;;;;5104910;27;20315;-56
2022/08/26 00:34:19;;;;;;;;;;;15.70;99.90;;;;;;5124711;27;20371;-56
2022/08/26 00:36:59;;;;;;;;;;;15.60;99.90;;;;;;5125330;27;19912;-56
2022/08/26 00:39:38;;;;;;;;;;;15.70;99.90;;;;;;5124052;27;19911;-54
2022/08/26 00:42:18;;;;;;;;;;;15.60;99.90;;;;;;5104141;27;19946;-56
2022/08/26 00:44:58;;;;;;;;;;;15.60;99.90;;;;;;5104480;27;19922;-56
2022/08/26 00:47:40;;;;;;;;;;;15.60;99.90;;;;;;5124972;27;19977;-54
2022/08/26 00:50:22;;;;;;;;;;;15.60;99.90;;;;;;5123771;27;19953;-56
2022/08/26 00:53:04;;;;;;;;;;;15.50;99.90;;;;;;5114506;27;19924;-56
2022/08/26 00:55:44;;;;;;;;;;;15.40;99.90;;;;;;5124859;27;19966;-56
2022/08/26 00:58:24;;;;;;;;;;;15.30;99.90;;;;;;5124963;27;20295;-56
2022/08/26 01:01:05;;;;;;;;;;;15.30;99.90;;;;;;5124378;27;19920;-56
2022/08/26 01:03:46;;;;;;;;;;;15.30;99.90;;;;;;5108241;27;19916;-56
2022/08/26 01:06:27;;;;;;;;;;;15.30;99.90;;;;;;5124696;27;19912;-56
2022/08/26 01:09:08;;;;;;;;;;;15.20;99.90;;;;;;5124301;27;19916;-56
2022/08/26 01:11:48;;;;;;;;;;;15.20;99.90;;;;;;5124511;27;20361;-55
2022/08/26 01:14:30;;;;;;;;;;;15.30;99.90;;;;;;5104380;27;20335;-56
2022/08/26 01:17:10;;;;;;;;;;;15.30;99.90;;;;;;5125006;27;20384;-54
2022/08/26 01:19:52;;;;;;;;;;;15.30;99.90;;;;;;5124142;27;19916;-56
2022/08/26 01:22:33;;;;;;;;;;;15.30;99.90;;;;;;5125062;27;19911;-56
2022/08/26 01:25:13;;;;;;;;;;;15.20;99.90;;;;;;5125148;27;19918;-56
2022/08/26 01:27:56;;;;;;;;;;;15.20;99.90;;;;;;5124309;27;19911;-56
2022/08/26 01:30:37;;;;;;;;;;;15.20;99.90;;;;;;5103872;27;19942;-56
2022/08/26 01:33:19;;;;;;;;;;;15.20;99.90;;;;;;5091890;27;19927;-56
2022/08/26 01:35:59;;;;;;;;;;;15.20;99.90;;;;;;5084250;28;20055;-56
2022/08/26 01:38:39;;;;;;;;;;;15.20;99.90;;;;;;5125033;27;19920;-55
2022/08/26 01:41:19;;;;;;;;;;;15.10;99.90;;;;;;5104803;27;19912;-56
2022/08/26 01:44:00;;;;;;;;;;;15.00;99.90;;;;;;5125016;27;19912;-56
2022/08/26 01:46:42;;;;;;;;;;;15.00;99.90;;;;;;5124493;27;20529;-56
2022/08/26 01:49:22;;;;;;;;;;;15.00;99.90;;;;;;5124304;27;20489;-56
2022/08/26 01:52:04;;;;;;;;;;;15.00;99.90;;;;;;5122791;27;19922;-56
2022/08/26 01:54:44;;;;;;;;;;;15.00;99.90;;;;;;5179186;22;19930;-55
2022/08/26 01:57:24;;;;;;;;;;;15.00;99.90;;;;;;5124889;27;19947;-56
2022/08/26 02:00:08;;;;;;;;;;;14.90;99.90;;;;;;5120847;27;19945;-54
2022/08/26 02:03:15;;;;;;;;;;;14.90;99.90;;;;;;5125223;27;19915;-56
2022/08/26 02:05:55;;;;;;;;;;;14.90;99.90;;;;;;5125244;27;19919;-55
2022/08/26 02:08:38;;;;;;;;;;;14.90;99.90;;;;;;5124029;27;19918;-54
2022/08/26 02:11:18;;;;;;;;;;;14.90;99.90;;;;;;5124694;27;20373;-55
2022/08/26 02:14:01;;;;;;;;;;;14.90;99.90;;;;;;5125171;27;19912;-53
2022/08/26 02:16:42;;;;;;;;;;;14.80;99.90;;;;;;5125080;27;19912;-55
2022/08/26 02:19:23;;;;;;;;;;;14.90;99.90;;;;;;5123750;27;19918;-55
2022/08/26 02:22:05;;;;;;;;;;;14.90;99.90;;;;;;5124920;27;19929;-55
2022/08/26 02:24:48;;;;;;;;;;;14.80;99.90;;;;;;5109433;27;19923;-54
2022/08/26 02:27:29;;;;;;;;;;;14.70;99.90;;;;;;5124318;27;19912;-54
2022/08/26 02:30:12;;;;;;;;;;;14.70;99.90;;;;;;5103528;27;19930;-55
2022/08/26 02:32:53;;;;;;;;;;;14.70;99.90;;;;;;5124624;27;19912;-54
2022/08/26 02:35:35;;;;;;;;;;;14.70;99.90;;;;;;5103389;27;20315;-54
2022/08/26 02:38:16;;;;;;;;;;;14.70;99.90;;;;;;5123309;27;19920;-55
2022/08/26 02:40:55;;;;;;;;;;;14.70;99.90;;;;;;5123917;27;19915;-56
2022/08/26 02:43:35;;;;;;;;;;;14.70;99.90;;;;;;5124270;27;19912;-55
2022/08/26 02:46:15;;;;;;;;;;;14.80;99.90;;;;;;5144229;27;19941;-53
2022/08/26 02:48:55;;;;;;;;;;;14.80;99.90;;;;;;5123397;27;20478;-55
2022/08/26 02:51:35;;;;;;;;;;;14.80;99.90;;;;;;5124659;27;19929;-56
2022/08/26 02:54:16;;;;;;;;;;;14.70;99.90;;;;;;5113354;27;19938;-55
2022/08/26 02:56:56;;;;;;;;;;;14.70;99.90;;;;;;5124351;27;20312;-55
2022/08/26 02:59:38;;;;;;;;;;;14.70;99.90;;;;;;5123623;27;19916;-53
2022/08/26 03:02:17;;;;;;;;;;;14.60;99.90;;;;;;5124860;27;19918;-54
2022/08/26 03:04:57;;;;;;;;;;;14.70;99.90;;;;;;5124723;27;19934;-55
2022/08/26 03:07:37;;;;;;;;;;;14.60;99.90;;;;;;5123925;27;20298;-55
2022/08/26 03:10:18;;;;;;;;;;;14.60;99.90;;;;;;5124012;27;19926;-55
2022/08/26 03:12:59;;;;;;;;;;;14.60;99.90;;;;;;5124580;27;19911;-55
2022/08/26 03:15:40;;;;;;;;;;;14.50;99.90;;;;;;5104394;27;19953;-54
2022/08/26 03:18:19;;;;;;;;;;;14.50;99.90;;;;;;5124695;27;19911;-53
2022/08/26 03:21:04;;;;;;;;;;;14.60;99.90;;;;;;5124126;27;19912;-54
2022/08/26 03:23:44;;;;;;;;;;;14.60;99.90;;;;;;5118370;27;19912;-55
2022/08/26 03:26:25;;;;;;;;;;;14.40;99.90;;;;;;5125133;27;19918;-56
2022/08/26 03:32:06;;;;;;;;;;;14.40;99.90;;;;;;5124727;27;19916;-55
2022/08/26 03:34:46;;;;;;;;;;;14.40;99.90;;;;;;5104180;27;20297;-54
2022/08/26 03:37:25;;;;;;;;;;;14.40;99.90;;;;;;5124079;27;20385;-55
2022/08/26 03:40:07;;;;;;;;;;;14.50;99.90;;;;;;5103995;27;19945;-55
2022/08/26 03:42:47;;;;;;;;;;;14.60;99.90;;;;;;5124344;27;20393;-55
2022/08/26 03:45:28;;;;;;;;;;;14.60;99.90;;;;;;5124419;27;19916;-55
2022/08/26 03:48:08;;;;;;;;;;;14.60;99.90;;;;;;5124998;27;20161;-55
2022/08/26 03:50:48;;;;;;;;;;;14.60;99.90;;;;;;5123996;27;19938;-54
2022/08/26 03:53:28;;;;;;;;;;;14.50;99.90;;;;;;5120856;27;19912;-53
2022/08/26 03:56:07;;;;;;;;;;;14.40;99.90;;;;;;5124954;27;19911;-55
2022/08/26 03:58:47;;;;;;;;;;;14.40;99.90;;;;;;5122710;27;19920;-56
2022/08/26 04:01:27;;;;;;;;;;;14.40;99.90;;;;;;5119584;27;19912;-54
2022/08/26 04:04:07;;;;;;;;;;;14.30;99.90;;;;;;5109518;27;19916;-54
2022/08/26 04:06:47;;;;;;;;;;;14.30;99.90;;;;;;5099301;27;19930;-53
2022/08/26 04:09:27;;;;;;;;;;;14.40;99.90;;;;;;5123973;27;19918;-54
2022/08/26 04:12:07;;;;;;;;;;;14.40;99.90;;;;;;5123927;27;19918;-57
2022/08/26 04:14:48;;;;;;;;;;;14.40;99.90;;;;;;5109907;27;19934;-56
2022/08/26 04:17:28;;;;;;;;;;;14.30;99.90;;;;;;5125182;27;20403;-57
2022/08/26 04:20:12;;;;;;;;;;;14.40;99.90;;;;;;5124806;27;19918;-54
2022/08/26 04:22:52;;;;;;;;;;;14.30;99.90;;;;;;5124027;27;19912;-54
2022/08/26 04:25:32;;;;;;;;;;;14.30;99.90;;;;;;5123706;27;19916;-55
2022/08/26 04:28:13;;;;;;;;;;;14.30;99.90;;;;;;5103517;27;20428;-55
2022/08/26 04:30:53;;;;;;;;;;;14.20;99.90;;;;;;5123952;27;19918;-53
2022/08/26 04:33:33;;;;;;;;;;;14.20;99.90;;;;;;5098498;27;19912;-54
2022/08/26 04:36:13;;;;;;;;;;;14.30;99.90;;;;;;5123863;27;19916;-53
2022/08/26 04:38:53;;;;;;;;;;;14.30;99.90;;;;;;5103882;27;20320;-53
2022/08/26 04:41:33;;;;;;;;;;;14.40;99.90;;;;;;5084531;28;19912;-55
2022/08/26 04:44:13;;;;;;;;;;;14.30;99.90;;;;;;5115022;27;19918;-55
2022/08/26 04:46:52;;;;;;;;;;;14.30;99.90;;;;;;5125486;27;19923;-53
2022/08/26 04:49:32;;;;;;;;;;;14.40;99.90;;;;;;5124783;27;19939;-54
2022/08/26 04:52:14;;;;;;;;;;;14.40;99.90;;;;;;5125369;27;19918;-53
2022/08/26 04:54:53;;;;;;;;;;;14.50;99.90;;;;;;5125167;27;19916;-53
2022/08/26 04:57:33;;;;;;;;;;;14.60;99.90;;;;;;5124913;27;20414;-54
2022/08/26 05:00:14;;;;;;;;;;;14.60;99.90;;;;;;5124830;27;19922;-54
2022/08/26 05:02:54;;;;;;;;;;;14.70;99.90;;;;;;5125589;27;19912;-52
2022/08/26 05:05:37;;;;;;;;;;;14.90;99.90;;;;;;5125207;27;19922;-53
2022/08/26 05:08:18;;;;;;;;;;;15.00;99.90;;;;;;5125316;27;19959;-55
2022/08/26 05:10:59;;;;;;;;;;;15.20;99.90;;;;;;5125082;27;20262;-53
2022/08/26 05:13:39;;;;;;;;;;;15.30;99.90;;;;;;5119768;27;19912;-53
2022/08/26 05:16:20;;;;;;;;;;;15.40;99.90;;;;;;5125765;27;19912;-53
2022/08/26 05:19:00;;;;;;;;;;;15.60;99.90;;;;;;5104397;27;20270;-55
2022/08/26 05:21:40;;;;;;;;;;;15.60;99.90;;;;;;5125696;27;19912;-55
2022/08/26 05:24:19;;;;;;;;;;;15.70;99.90;;;;;;5094389;27;19926;-53
2022/08/26 05:26:59;;;;;;;;;;;15.70;99.90;;;;;;5125984;27;19918;-53
2022/08/26 05:29:39;;;;;;;;;;;15.80;99.90;;;;;;5104761;27;19918;-52
2022/08/26 05:32:19;;;;;;;;;;;15.90;99.90;;;;;;5125908;27;19912;-53
2022/08/26 05:34:59;;;;;;;;;;;16.00;99.90;;;;;;5125276;27;20384;-54
2022/08/26 05:37:38;;;;;;;;;;;16.20;99.90;;;;;;5104768;27;19926;-55
2022/08/26 05:40:18;;;;;;;;;;;16.30;99.90;;;;;;5125163;27;19953;-53
2022/08/26 05:42:58;;;;;;;;;;;16.40;99.90;;;;;;5125897;27;19912;-52
2022/08/26 05:45:38;;;;;;;;;;;16.60;99.90;;;;;;5125622;27;19918;-52
2022/08/26 05:48:20;;;;;;;;;;;16.80;99.90;;;;;;5125431;27;19918;-53
2022/08/26 05:51:02;;;;;;;;;;;16.90;99.90;;;;;;5104564;27;20323;-52
2022/08/26 05:53:43;;;;;;;;;;;17.00;99.90;;;;;;5118926;27;19912;-53
2022/08/26 05:56:23;;;;;;;;;;;17.20;99.90;;;;;;5104159;27;19950;-53
2022/08/26 05:59:03;;;;;;;;;;;17.40;99.90;;;;;;5121537;27;19922;-53
2022/08/26 06:01:43;;;;;;;;;;;17.60;99.90;;;;;;5100005;27;19920;-54
2022/08/26 06:04:24;;;;;;;;;;;17.80;99.90;;;;;;5111177;27;19928;-54
2022/08/26 06:07:05;;;;;;;;;;;18.00;99.90;;;;;;5124249;27;20299;-52
2022/08/26 06:09:44;;;;;;;;;;;18.30;99.90;;;;;;5100620;27;19930;-53
2022/08/26 06:12:24;;;;;;;;;;;18.60;99.90;;;;;;5125716;27;19918;-53
2022/08/26 06:15:04;;;;;;;;;;;18.80;99.90;;;;;;5122937;27;19916;-53
2022/08/26 06:17:46;;;;;;;;;;;19.00;99.90;;;;;;5131756;27;19930;-54
2022/08/26 06:20:25;;;;;;;;;;;19.30;99.90;;;;;;5124867;27;19920;-56
2022/08/26 06:26:03;;;;;;;;;;;19.60;99.90;;;;;;5104762;27;20319;-53
2022/08/26 06:28:43;;;;;;;;;;;19.70;99.90;;;;;;5125241;27;20380;-53
2022/08/26 06:31:23;;;;;;;;;;;20.00;99.90;;;;;;5104813;27;19912;-52
2022/08/26 06:34:02;;;;;;;;;;;20.30;99.90;;;;;;5096185;27;19913;-53
2022/08/26 06:36:43;;;;;;;;;;;20.70;99.90;;;;;;5125400;27;19922;-55
2022/08/26 06:39:24;;;;;;;;;;;21.00;99.90;;;;;;5124881;27;20369;-52
2022/08/26 06:42:03;;;;;;;;;;;21.30;99.90;;;;;;5125863;27;20361;-53
2022/08/26 06:44:46;;;;;;;;;;;21.60;99.90;;;;;;5123948;27;20101;-53
2022/08/26 06:47:26;;;;;;;;;;;21.90;99.90;;;;;;5125202;27;19930;-52
2022/08/26 06:50:06;;;;;;;;;;;22.20;99.90;;;;;;5124165;27;19918;-52
2022/08/26 06:52:47;;;;;;;;;;;22.30;99.90;;;;;;5125044;27;19929;-54
2022/08/26 06:55:27;;;;;;;;;;;22.20;99.90;;;;;;5124988;27;19920;-54
2022/08/26 06:58:08;;;;;;;;;;;22.10;99.90;;;;;;5123718;27;19915;-52
2022/08/26 07:00:48;;;;;;;;;;;22.20;99.90;;;;;;5102191;27;19918;-55
2022/08/26 07:03:28;;;;;;;;;;;22.20;99.90;;;;;;5100195;27;19926;-54
2022/08/26 07:06:08;;;;;;;;;;;22.20;99.90;;;;;;5103290;27;19957;-54
2022/08/26 07:08:48;;;;;;;;;;;22.30;99.90;;;;;;5113959;27;19920;-55
2022/08/26 07:11:30;;;;;;;;;;;22.30;99.90;;;;;;5114410;27;20192;-53
2022/08/26 07:14:09;;;;;;;;;;;22.30;99.90;;;;;;5117988;27;19912;-53
2022/08/26 07:16:49;;;;;;;;;;;22.30;99.90;;;;;;5123663;27;20102;-53
2022/08/26 07:19:29;;;;;;;;;;;22.40;99.90;;;;;;5124047;27;19918;-52
2022/08/26 07:22:09;;;;;;;;;;;22.50;99.90;;;;;;5075703;28;20298;-54
2022/08/26 07:24:51;;;;;;;;;;;22.60;99.90;;;;;;5128049;27;19926;-54
2022/08/26 07:27:31;;;;;;;;;;;22.60;99.90;;;;;;5116688;27;20304;-55
2022/08/26 07:30:12;;;;;;;;;;;22.70;99.90;;;;;;5124142;27;19916;-53
2022/08/26 07:32:55;;;;;;;;;;;22.90;99.90;;;;;;5132051;27;19912;-52
2022/08/26 07:35:36;;;;;;;;;;;23.00;99.90;;;;;;5103781;27;19926;-55
2022/08/26 07:38:16;;;;;;;;;;;23.10;99.90;;;;;;5101567;27;21901;-54
2022/08/26 07:40:55;;;;;;;;;;;23.20;99.90;;;;;;5124230;27;20410;-53
2022/08/26 07:43:36;;;;;;;;;;;23.20;99.90;;;;;;5103925;27;19912;-53
2022/08/26 07:46:18;;;;;;;;;;;23.20;99.90;;;;;;5121088;27;19922;-53
2022/08/26 07:48:58;;;;;;;;;;;23.20;99.90;;;;;;5088445;27;20094;-53
2022/08/26 07:51:38;;;;;;;;;;;23.20;99.90;;;;;;5124934;27;19912;-53
2022/08/26 07:54:18;;;;;;;;;;;23.30;99.90;;;;;;5151646;22;20246;-55
2022/08/26 07:56:58;;;;;;;;;;;23.50;99.90;;;;;;5123962;27;19918;-55
2022/08/26 07:59:39;;;;;;;;;;;23.40;99.90;;;;;;5124146;27;19953;-56
2022/08/26 08:02:19;;;;;;;;;;;23.50;99.90;;;;;;5121277;27;20510;-55
2022/08/26 08:04:59;;;;;;;;;;;23.70;99.90;;;;;;5120308;27;19911;-57
2022/08/26 08:07:40;;;;;;;;;;;23.80;99.90;;;;;;5117322;27;20423;-56
2022/08/26 08:10:22;;;;;;;;;;;24.00;99.90;;;;;;5117725;27;19913;-56
2022/08/26 08:13:02;;;;;;;;;;;24.20;99.90;;;;;;5121547;27;19911;-56
2022/08/26 08:15:41;;;;;;;;;;;24.40;99.90;;;;;;5100041;27;20270;-54
2022/08/26 08:18:22;;;;;;;;;;;24.70;99.90;;;;;;5113283;27;19916;-56
2022/08/26 08:21:02;;;;;;;;;;;24.90;99.90;;;;;;5115406;27;19912;-56
2022/08/26 08:23:42;;;;;;;;;;;25.00;99.90;;;;;;5114214;27;19922;-56
2022/08/26 08:26:23;;;;;;;;;;;25.00;99.90;;;;;;5115957;27;19954;-55
2022/08/26 08:29:04;;;;;;;;;;;25.10;99.90;;;;;;5090473;27;20349;-55
2022/08/26 08:31:47;;;;;;;;;;;25.30;99.90;;;;;;5118839;27;19919;-55
2022/08/26 08:34:28;;;;;;;;;;;25.40;99.90;;;;;;5094260;27;20331;-56
2022/08/26 08:37:08;;;;;;;;;;;25.40;99.90;;;;;;5125295;27;20297;-56
2022/08/26 08:39:48;;;;;;;;;;;25.40;99.90;;;;;;5124470;27;20331;-56
2022/08/26 08:42:36;;;;;;;;;;;25.60;99.90;;;;;;5126577;27;19922;-56
2022/08/26 08:45:20;;;;;;;;;;;25.80;99.90;;;;;;5125579;27;19922;-55
2022/08/26 08:48:01;;;;;;;;;;;26.00;99.90;;;;;;5105012;27;19950;-57
2022/08/26 08:50:44;;;;;;;;;;;26.40;99.90;;;;;;5105367;27;19916;-55
2022/08/26 08:53:30;;;;;;;;;;;26.90;99.90;;;;;;5122467;27;20308;-55
2022/08/26 08:56:16;;;;;;;;;;;27.30;99.90;;;;;;5124506;27;19918;-56
2022/08/26 08:58:59;;;;;;;;;;;27.50;99.90;;;;;;5125001;27;20355;-56
2022/08/26 09:01:54;;;;;;;;;;;27.50;99.90;;;;;;5122441;27;19918;-56
2022/08/26 09:04:43;;;;;;;;;;;27.70;99.90;;;;;;5082112;27;19974;-55
2022/08/26 09:07:26;;;;;;;;;;;27.90;99.90;;;;;;5110639;27;19912;-56
2022/08/26 09:10:21;;;;;;;;;;;27.90;99.90;;;;;;5144030;27;19925;-58
2022/08/26 09:13:05;;;;;;;;;;;27.90;99.90;;;;;;5121223;27;19919;-55
2022/08/26 09:15:53;;;;;;;;;;;27.90;99.90;;;;;;5117537;27;19919;-56
2022/08/26 09:18:39;;;;;;;;;;;28.10;99.90;;;;;;5119388;27;19913;-56
2022/08/26 09:21:22;;;;;;;;;;;28.20;99.90;;;;;;5118463;27;19916;-56
2022/08/26 09:24:03;;;;;;;;;;;28.20;99.90;;;;;;5114344;27;19912;-55
2022/08/26 09:26:45;;;;;;;;;;;28.20;99.90;;;;;;5123913;27;19946;-55
2022/08/26 09:29:26;;;;;;;;;;;28.30;99.90;;;;;;5119921;27;19920;-57
2022/08/26 09:32:19;;;;;;;;;;;28.40;99.90;;;;;;5100583;27;19954;-56
2022/08/26 09:35:01;;;;;;;;;;;28.70;99.90;;;;;;5122423;27;19926;-56
2022/08/26 09:37:42;;;;;;;;;;;29.10;99.90;;;;;;5117181;27;19916;-56
2022/08/26 09:40:25;;;;;;;;;;;29.80;99.90;;;;;;5124418;27;19911;-56
2022/08/26 09:43:10;;;;;;;;;;;30.00;94.80;;;;;;5125014;27;20094;-55
2022/08/26 09:45:53;;;;;;;;;;;30.40;92.40;;;;;;5100994;27;19942;-58
2022/08/26 09:48:35;;;;;;;;;;;30.60;88.50;;;;;;5124355;27;19912;-55
2022/08/26 09:51:30;;;;;;;;;;;30.70;82.70;;;;;;5119069;27;19916;-56
2022/08/26 09:54:23;;;;;;;;;;;30.80;78.30;;;;;;5121688;27;19916;-56
2022/08/26 09:57:28;;;;;;;;;;;30.80;78.00;;;;;;5125042;27;19912;-55
2022/08/26 10:00:22;;;;;;;;;;;30.40;78.10;;;;;;5125312;27;19912;-55
2022/08/26 10:03:04;;;;;;;;;;;30.00;80.90;;;;;;5120421;27;19912;-55
2022/08/26 10:05:46;;;;;;;;;;;29.60;87.20;;;;;;5101828;27;19969;-55
2022/08/26 10:08:28;;;;;;;;;;;29.20;92.10;;;;;;5111373;27;20280;-56
2022/08/26 10:11:19;;;;;;;;;;;28.80;97.10;;;;;;5120811;27;19915;-56
2022/08/26 10:14:02;;;;;;;;;;;28.50;99.90;;;;;;5122362;27;20424;-56
2022/08/26 10:16:46;;;;;;;;;;;28.30;99.90;;;;;;5103009;27;19973;-56
2022/08/26 10:19:29;;;;;;;;;;;27.90;99.90;;;;;;5124202;27;19911;-57
2022/08/26 10:22:12;;;;;;;;;;;27.30;99.90;;;;;;5124968;27;19912;-55
2022/08/26 10:24:54;;;;;;;;;;;26.50;99.90;;;;;;5115260;27;19916;-56
2022/08/26 10:27:39;;;;;;;;;;;26.00;99.90;;;;;;5123624;27;19953;-55
2022/08/26 10:30:20;;;;;;;;;;;25.60;99.90;;;;;;5124349;27;19915;-56
2022/08/26 10:33:03;;;;;;;;;;;25.20;99.90;;;;;;5124577;27;19920;-55
2022/08/26 10:35:48;;;;;;;;;;;24.70;99.90;;;;;;5123795;27;20273;-55
2022/08/26 10:38:33;;;;;;;;;;;24.20;99.90;;;;;;5124036;27;19912;-57
2022/08/26 10:41:14;;;;;;;;;;;23.90;99.90;;;;;;5124524;27;19912;-56
2022/08/26 10:43:57;;;;;;;;;;;23.80;99.90;;;;;;5122623;27;19918;-55
2022/08/26 10:46:39;;;;;;;;;;;23.60;99.90;;;;;;5123445;27;19916;-56
2022/08/26 10:49:19;;;;;;;;;;;23.40;99.90;;;;;;5103459;27;19912;-56
2022/08/26 10:52:01;;;;;;;;;;;23.50;99.90;;;;;;5103988;27;19912;-55
2022/08/26 10:54:45;;;;;;;;;;;23.50;99.90;;;;;;5124392;27;19916;-57
2022/08/26 10:57:30;;;;;;;;;;;23.60;99.90;;;;;;5124122;27;19922;-55
2022/08/26 11:03:11;;;;;;;;;;;23.90;99.90;;;;;;5124195;27;19935;-54
2022/08/26 11:06:05;;;;;;;;;;;24.20;99.90;;;;;;5086409;27;19917;-56
2022/08/26 11:08:47;;;;;;;;;;;24.60;99.90;;;;;;5123099;27;19927;-56
2022/08/26 11:11:45;;;;;;;;;;;25.10;99.90;;;;;;5123720;27;20430;-55
2022/08/26 11:14:38;;;;;;;;;;;25.60;99.90;;;;;;5118493;27;19924;-56
2022/08/26 11:17:39;;;;;;;;;;;26.00;99.90;;;;;;5123778;27;20331;-56
2022/08/26 11:20:33;;;;;;;;;;;26.10;99.90;;;;;;5124123;27;20429;-55
2022/08/26 11:23:30;;;;;;;;;;;26.30;99.90;;;;;;5125130;27;19912;-56
2022/08/26 11:26:15;;;;;;;;;;;26.50;99.90;;;;;;5098379;27;19926;-56
2022/08/26 11:28:57;;;;;;;;;;;26.50;99.90;;;;;;5119187;27;19922;-56
2022/08/26 11:31:50;;;;;;;;;;;26.50;99.90;;;;;;5080034;28;20321;-56
2022/08/26 11:34:49;;;;;;;;;;;26.40;99.90;;;;;;5116828;27;19920;-56
2022/08/26 11:37:32;;;;;;;;;;;26.50;99.90;;;;;;5141656;27;20089;-56
2022/08/26 11:40:15;;;;;;;;;;;26.60;99.90;;;;;;5124444;27;19912;-55
2022/08/26 11:42:58;;;;;;;;;;;26.80;99.90;;;;;;5103389;27;19915;-55
2022/08/26 11:45:40;;;;;;;;;;;26.80;99.90;;;;;;5106902;27;19912;-55
2022/08/26 11:48:20;;;;;;;;;;;26.90;99.90;;;;;;5124119;27;19912;-56
2022/08/26 11:51:02;;;;;;;;;;;27.00;99.90;;;;;;5123873;27;19912;-55
2022/08/26 11:53:44;;;;;;;;;;;27.10;99.90;;;;;;5124379;27;19915;-56
2022/08/26 11:56:26;;;;;;;;;;;27.30;99.90;;;;;;5124277;27;19918;-56
2022/08/26 11:59:09;;;;;;;;;;;27.30;99.90;;;;;;5121282;27;19922;-57
2022/08/26 12:01:51;;;;;;;;;;;27.20;99.90;;;;;;5122574;27;19915;-55
2022/08/26 12:04:32;;;;;;;;;;;27.40;99.90;;;;;;5098705;27;19912;-55
2022/08/26 12:07:12;;;;;;;;;;;27.50;99.90;;;;;;5102812;27;19912;-57
2022/08/26 12:09:54;;;;;;;;;;;27.50;99.90;;;;;;5124829;27;19941;-56
2022/08/26 12:12:36;;;;;;;;;;;27.60;99.90;;;;;;5096270;27;20402;-56
2022/08/26 12:15:18;;;;;;;;;;;27.70;99.90;;;;;;5119060;27;20151;-55
2022/08/26 12:18:15;;;;;;;;;;;27.90;99.90;;;;;;5146469;27;20376;-56
2022/08/26 12:20:56;;;;;;;;;;;28.10;99.90;;;;;;5124314;27;19912;-56
2022/08/26 12:23:39;;;;;;;;;;;28.40;99.90;;;;;;5125724;27;19911;-57
2022/08/26 12:26:21;;;;;;;;;;;28.60;99.90;;;;;;5126193;27;19916;-55
2022/08/26 12:29:04;;;;;;;;;;;28.40;99.90;;;;;;5104320;27;19930;-55
2022/08/26 12:31:44;;;;;;;;;;;28.30;99.90;;;;;;5125729;27;19922;-56
2022/08/26 12:34:26;;;;;;;;;;;28.10;99.90;;;;;;5125669;27;19918;-56
2022/08/26 12:37:10;;;;;;;;;;;27.90;99.90;;;;;;5125758;27;19911;-55
2022/08/26 12:39:50;;;;;;;;;;;27.70;99.90;;;;;;5145976;27;19911;-56
2022/08/26 12:42:41;;;;;;;;;;;27.50;99.90;;;;;;5125488;27;19925;-56
2022/08/26 12:45:28;;;;;;;;;;;27.00;99.90;;;;;;5145904;27;19926;-57
2022/08/26 12:48:09;;;;;;;;;;;26.90;99.90;;;;;;5125788;27;20320;-55
2022/08/26 12:50:50;;;;;;;;;;;26.70;99.90;;;;;;5105073;27;20121;-55
2022/08/26 12:53:31;;;;;;;;;;;26.60;99.90;;;;;;5125611;27;20395;-56
2022/08/26 12:56:26;;;;;;;;;;;26.40;99.90;;;;;;5084668;27;19913;-56
2022/08/26 12:59:08;;;;;;;;;;;26.50;99.90;;;;;;5124803;27;19929;-56
2022/08/26 13:01:48;;;;;;;;;;;26.40;99.90;;;;;;5146285;27;19916;-56
2022/08/26 13:04:33;;;;;;;;;;;26.20;99.90;;;;;;5119547;27;20245;-55
2022/08/26 13:07:20;;;;;;;;;;;26.20;99.90;;;;;;5126288;27;19918;-55
2022/08/26 13:10:00;;;;;;;;;;;26.10;99.90;;;;;;5125090;27;19925;-55
2022/08/26 13:12:40;;;;;;;;;;;26.20;99.90;;;;;;5103577;27;19912;-55
2022/08/26 13:15:19;;;;;;;;;;;26.50;99.90;;;;;;5112641;27;19912;-55
2022/08/26 13:17:59;;;;;;;;;;;26.60;99.90;;;;;;5104525;27;19916;-56
2022/08/26 13:20:42;;;;;;;;;;;26.80;99.90;;;;;;5104113;27;20293;-55
2022/08/26 13:23:22;;;;;;;;;;;26.90;99.90;;;;;;5125958;27;19938;-56
2022/08/26 13:26:03;;;;;;;;;;;27.20;99.90;;;;;;5125862;27;19912;-56
2022/08/26 13:28:43;;;;;;;;;;;27.50;99.90;;;;;;5125021;27;19945;-55
2022/08/26 13:31:23;;;;;;;;;;;27.60;99.90;;;;;;5105405;27;20430;-56
2022/08/26 13:34:03;;;;;;;;;;;27.90;99.90;;;;;;5125805;27;20380;-56
2022/08/26 13:36:43;;;;;;;;;;;28.20;99.90;;;;;;5135219;27;20373;-56
2022/08/26 13:39:25;;;;;;;;;;;28.30;99.90;;;;;;5124818;27;19957;-55
2022/08/26 13:42:06;;;;;;;;;;;28.20;99.90;;;;;;5106597;27;19927;-55
2022/08/26 13:44:48;;;;;;;;;;;28.20;99.90;;;;;;5118463;27;19926;-56
2022/08/26 13:47:28;;;;;;;;;;;28.00;99.90;;;;;;5126814;27;19918;-55
2022/08/26 13:50:08;;;;;;;;;;;27.90;99.90;;;;;;5121014;27;19912;-56
2022/08/26 13:52:48;;;;;;;;;;;28.00;99.90;;;;;;5126321;27;19926;-55
2022/08/26 13:55:28;;;;;;;;;;;28.00;99.90;;;;;;5111665;27;20507;-56
2022/08/26 13:58:08;;;;;;;;;;;28.00;99.90;;;;;;5119485;27;20526;-54
2022/08/26 14:00:48;;;;;;;;;;;28.10;99.90;;;;;;5098702;27;19921;-55
2022/08/26 14:03:27;;;;;;;;;;;28.10;99.90;;;;;;5098839;27;19919;-57
2022/08/26 14:06:07;;;;;;;;;;;27.90;99.90;;;;;;5110151;27;19922;-56
2022/08/26 14:08:48;;;;;;;;;;;27.70;99.90;;;;;;5093184;27;20274;-55
2022/08/26 14:11:29;;;;;;;;;;;27.50;99.90;;;;;;5117195;27;19912;-55
2022/08/26 14:14:08;;;;;;;;;;;27.00;99.90;;;;;;5102191;27;19918;-55
2022/08/26 14:16:48;;;;;;;;;;;26.30;99.90;;;;;;5125340;27;19920;-55
2022/08/26 14:19:29;;;;;;;;;;;25.90;99.90;;;;;;5119613;27;19919;-55
2022/08/26 14:22:09;;;;;;;;;;;25.60;99.90;;;;;;5116237;27;19912;-55
2022/08/26 14:24:49;;;;;;;;;;;25.40;99.90;;;;;;5118732;27;19915;-55
2022/08/26 14:27:29;;;;;;;;;;;25.40;99.90;;;;;;5120558;27;20325;-55
2022/08/26 14:30:10;;;;;;;;;;;25.50;99.90;;;;;;5126782;27;20427;-55
2022/08/26 14:32:51;;;;;;;;;;;25.60;99.90;;;;;;5142670;27;19911;-55
2022/08/26 14:35:32;;;;;;;;;;;25.80;99.90;;;;;;5122813;27;20380;-55
2022/08/26 14:38:13;;;;;;;;;;;25.90;99.90;;;;;;5111022;27;19931;-55
2022/08/26 14:40:53;;;;;;;;;;;25.90;99.90;;;;;;5146501;27;20277;-55
2022/08/26 14:43:33;;;;;;;;;;;25.90;99.90;;;;;;5082500;28;19913;-55
2022/08/26 14:46:13;;;;;;;;;;;25.90;99.90;;;;;;5126709;27;19912;-55
2022/08/26 14:48:54;;;;;;;;;;;25.80;99.90;;;;;;5106179;27;20368;-56
2022/08/26 14:51:34;;;;;;;;;;;25.80;99.90;;;;;;5155473;27;19915;-55
2022/08/26 14:54:15;;;;;;;;;;;25.70;99.90;;;;;;5121842;27;20270;-55
2022/08/26 14:56:57;;;;;;;;;;;25.70;99.90;;;;;;5127006;27;19918;-55
2022/08/26 14:59:38;;;;;;;;;;;25.60;99.90;;;;;;5126349;27;20187;-57
2022/08/26 15:02:18;;;;;;;;;;;25.60;99.90;;;;;;5127694;27;19911;-55
2022/08/26 15:04:58;;;;;;;;;;;25.40;99.90;;;;;;5115909;27;20407;-55
2022/08/26 15:07:38;;;;;;;;;;;25.20;99.90;;;;;;5085844;28;19913;-55
2022/08/26 15:10:19;;;;;;;;;;;25.00;99.90;;;;;;5126519;27;19912;-55
2022/08/26 15:12:59;;;;;;;;;;;24.80;99.90;;;;;;5126279;27;20299;-56
2022/08/26 15:15:40;;;;;;;;;;;24.60;99.90;;;;;;5110734;27;19945;-55
2022/08/26 15:18:20;;;;;;;;;;;24.40;99.90;;;;;;5127124;27;19918;-55
2022/08/26 15:21:03;;;;;;;;;;;24.40;99.90;;;;;;5105699;27;19912;-55
2022/08/26 15:23:46;;;;;;;;;;;24.30;99.90;;;;;;5126301;27;19926;-55
2022/08/26 15:26:26;;;;;;;;;;;24.10;99.90;;;;;;5105860;27;20327;-57
2022/08/26 15:29:06;;;;;;;;;;;23.90;99.90;;;;;;5126904;27;19912;-55
2022/08/26 15:31:46;;;;;;;;;;;23.80;99.90;;;;;;5126886;27;19920;-56
2022/08/26 15:34:25;;;;;;;;;;;23.70;99.90;;;;;;5079821;28;19916;-56
2022/08/26 15:37:06;;;;;;;;;;;23.60;99.90;;;;;;5125926;27;19916;-55
2022/08/26 15:39:47;;;;;;;;;;;23.50;99.90;;;;;;5125773;27;19912;-55
2022/08/26 15:42:27;;;;;;;;;;;23.60;99.90;;;;;;5126015;27;19918;-55
2022/08/26 15:45:07;;;;;;;;;;;23.50;99.90;;;;;;5100327;27;19913;-55
2022/08/26 15:47:48;;;;;;;;;;;23.50;99.90;;;;;;5125165;27;20392;-56
2022/08/26 15:50:28;;;;;;;;;;;23.40;99.90;;;;;;5126177;27;20186;-55